Time;durP1;ratioP1;P1;durP2;ratioP2;P2;SDS_P1;SDS_P2;PMS_P1;PMS_P2;Temp;Humidity;BMP_temperature;BMP_pressure;BME280_temperature;BME280_humidity;BME280_pressure;Samples;Min_cycle;Max_cycle;Signal;HPM_P1;HPM_P2
2022/03/08 06:01:24;;;;;;;63.88;30.58;;;;;;;;;;5067827;28;20548;-60
2022/03/08 06:03:51;;;;;;;57.70;30.65;;;;;;;;;;5067960;28;20060;-60
2022/03/08 06:06:17;;;;;;;61.47;31.00;;;;;;;;;;5067532;28;20025;-61
2022/03/08 06:08:43;;;;;;;63.65;31.98;;;;;;;;;;5067726;28;20067;-61
2022/03/08 06:11:09;;;;;;;59.65;31.67;;;;;;;;;;5067494;28;20048;-61
2022/03/08 06:13:35;;;;;;;62.17;31.13;;;;;;;;;;5067254;28;20056;-60
2022/03/08 06:16:01;;;;;;;55.33;30.35;;;;;;;;;;5067342;28;20055;-60
2022/03/08 06:18:27;;;;;;;65.03;33.85;;;;;;;;;;5067328;28;20063;-61
2022/03/08 06:20:53;;;;;;;83.97;40.38;;;;;;;;;;5067139;28;20041;-60
2022/03/08 06:23:19;;;;;;;64.45;34.10;;;;;;;;;;5067392;28;20029;-62
2022/03/08 06:25:45;;;;;;;75.57;39.17;;;;;;;;;;5065661;28;20404;-61
2022/03/08 06:28:11;;;;;;;67.75;35.15;;;;;;;;;;5066922;28;20025;-61
2022/03/08 06:30:37;;;;;;;64.40;35.10;;;;;;;;;;5066858;28;20060;-61
2022/03/08 06:33:04;;;;;;;64.13;33.03;;;;;;;;;;5066812;28;20633;-60
2022/03/08 06:35:31;;;;;;;61.33;31.70;;;;;;;;;;5067093;28;20033;-61
2022/03/08 06:37:58;;;;;;;60.47;31.52;;;;;;;;;;5066457;28;20532;-60
2022/03/08 06:40:24;;;;;;;63.47;32.22;;;;;;;;;;5066641;28;20123;-63
2022/03/08 06:42:50;;;;;;;61.55;32.20;;;;;;;;;;5066397;28;20431;-63
2022/03/08 06:45:16;;;;;;;59.15;31.55;;;;;;;;;;5066947;28;20071;-63
2022/03/08 06:47:42;;;;;;;59.03;31.27;;;;;;;;;;5066446;28;20025;-63
2022/03/08 06:50:09;;;;;;;60.20;31.30;;;;;;;;;;5066748;28;20029;-64
2022/03/08 06:52:35;;;;;;;57.15;31.10;;;;;;;;;;5066726;28;20031;-63
2022/03/08 06:55:01;;;;;;;59.20;30.75;;;;;;;;;;5062947;28;20032;-63
2022/03/08 06:57:27;;;;;;;68.45;36.10;;;;;;;;;;5055144;28;20094;-63
2022/03/08 06:59:53;;;;;;;64.45;34.00;;;;;;;;;;5055832;28;20156;-61
2022/03/08 07:02:19;;;;;;;68.47;36.63;;;;;;;;;;5054499;28;20049;-64
2022/03/08 07:04:45;;;;;;;59.28;31.02;;;;;;;;;;5056143;28;20009;-62
2022/03/08 07:07:11;;;;;;;56.65;31.95;;;;;;;;;;5055871;28;20029;-62
2022/03/08 07:09:38;;;;;;;57.53;31.70;;;;;;;;;;5054230;28;20023;-63
2022/03/08 07:12:04;;;;;;;55.20;30.88;;;;;;;;;;5046109;28;20025;-64
2022/03/08 07:14:30;;;;;;;55.83;30.77;;;;;;;;;;5041875;28;20132;-64
2022/03/08 07:16:56;;;;;;;56.30;31.98;;;;;;;;;;5040845;28;20041;-64
2022/03/08 07:19:22;;;;;;;60.88;33.15;;;;;;;;;;5042561;28;20055;-61
2022/03/08 07:21:49;;;;;;;58.65;31.85;;;;;;;;;;5041797;28;20025;-62
2022/03/08 07:24:15;;;;;;;56.10;30.80;;;;;;;;;;5040798;28;20025;-61
2022/03/08 07:26:41;;;;;;;52.13;29.30;;;;;;;;;;5043819;28;20025;-63
2022/03/08 07:29:07;;;;;;;55.78;30.42;;;;;;;;;;5040950;28;20032;-63
2022/03/08 07:31:33;;;;;;;63.80;31.95;;;;;;;;;;5040686;28;20029;-62
2022/03/08 07:33:59;;;;;;;60.80;34.10;;;;;;;;;;5042387;28;20043;-63
2022/03/08 07:36:26;;;;;;;58.65;31.35;;;;;;;;;;5040833;28;20021;-63
2022/03/08 07:38:52;;;;;;;59.22;31.80;;;;;;;;;;5040702;28;20440;-63
2022/03/08 07:41:18;;;;;;;56.95;32.45;;;;;;;;;;5041856;28;20382;-62
2022/03/08 07:43:44;;;;;;;57.13;31.40;;;;;;;;;;5041567;28;20021;-60
2022/03/08 07:46:10;;;;;;;57.05;31.45;;;;;;;;;;5040692;28;20409;-63
2022/03/08 07:48:37;;;;;;;60.75;32.47;;;;;;;;;;5042266;28;20051;-61
2022/03/08 07:51:03;;;;;;;58.45;32.17;;;;;;;;;;5041266;28;20411;-61
2022/03/08 07:53:29;;;;;;;55.17;31.08;;;;;;;;;;5040518;28;20300;-60
2022/03/08 07:55:55;;;;;;;53.10;30.50;;;;;;;;;;5041907;28;20025;-61
2022/03/08 07:58:21;;;;;;;59.08;34.00;;;;;;;;;;5040395;28;20026;-61
2022/03/08 08:00:47;;;;;;;55.75;31.48;;;;;;;;;;5032957;28;20119;-63
2022/03/08 08:03:13;;;;;;;58.78;32.92;;;;;;;;;;5032414;28;20048;-65
2022/03/08 08:05:39;;;;;;;59.40;33.38;;;;;;;;;;5033000;28;20076;-63
2022/03/08 08:08:06;;;;;;;68.38;35.58;;;;;;;;;;5045165;28;20051;-62
2022/03/08 08:10:33;;;;;;;89.18;44.40;;;;;;;;;;5051248;28;20060;-60
2022/03/08 08:12:59;;;;;;;77.15;40.05;;;;;;;;;;5038467;28;20033;-61
2022/03/08 08:15:25;;;;;;;57.83;31.90;;;;;;;;;;5041239;28;20021;-63
2022/03/08 08:17:51;;;;;;;53.25;30.15;;;;;;;;;;5041213;28;20037;-61
2022/03/08 08:20:17;;;;;;;57.63;30.80;;;;;;;;;;5039252;28;20065;-62
2022/03/08 08:22:44;;;;;;;56.78;31.42;;;;;;;;;;5050548;28;20017;-61
2022/03/08 08:25:13;;;;;;;47.30;23.90;;;;;;;;;;5051637;28;20040;-60
2022/03/08 08:27:39;;;;;;;60.22;31.33;;;;;;;;;;5051677;28;20021;-61
2022/03/08 08:30:10;;;;;;;46.80;25.38;;;;;;;;;;5042343;28;20480;-60
2022/03/08 08:32:36;;;;;;;51.05;26.98;;;;;;;;;;5039407;28;20040;-61
2022/03/08 08:35:03;;;;;;;51.25;28.52;;;;;;;;;;5040530;28;20445;-60
2022/03/08 08:37:29;;;;;;;47.75;25.48;;;;;;;;;;5041394;28;20099;-60
2022/03/08 08:39:56;;;;;;;45.85;24.42;;;;;;;;;;5048340;28;20464;-60
2022/03/08 08:42:22;;;;;;;45.83;25.90;;;;;;;;;;5051273;28;20025;-62
2022/03/08 08:44:48;;;;;;;48.45;27.15;;;;;;;;;;5051272;28;20388;-60
2022/03/08 08:47:14;;;;;;;53.80;28.25;;;;;;;;;;5046078;28;20040;-61
2022/03/08 08:49:40;;;;;;;50.75;28.08;;;;;;;;;;5040237;28;20053;-62
2022/03/08 08:52:06;;;;;;;48.45;26.08;;;;;;;;;;5031530;28;20037;-63
2022/03/08 08:54:32;;;;;;;44.00;24.73;;;;;;;;;;5031304;28;20213;-62
2022/03/08 08:56:58;;;;;;;61.05;33.88;;;;;;;;;;5031616;28;20581;-59
2022/03/08 08:59:25;;;;;;;46.20;25.77;;;;;;;;;;5030934;28;20091;-61
2022/03/08 09:01:51;;;;;;;47.85;24.80;;;;;;;;;;5031257;28;20051;-60
2022/03/08 09:04:17;;;;;;;55.20;32.55;;;;;;;;;;5030941;28;20018;-63
2022/03/08 09:06:43;;;;;;;51.78;27.52;;;;;;;;;;5031123;28;20037;-63
2022/03/08 09:09:09;;;;;;;69.38;35.67;;;;;;;;;;5031093;28;20026;-62
2022/03/08 09:11:36;;;;;;;70.15;38.75;;;;;;;;;;5029911;28;20026;-62
2022/03/08 09:14:04;;;;;;;38.30;18.40;;;;;;;;;;5023566;28;20021;-60
2022/03/08 09:16:30;;;;;;;39.22;19.13;;;;;;;;;;5049701;28;20035;-62
2022/03/08 09:18:56;;;;;;;36.78;18.75;;;;;;;;;;5050171;28;20023;-62
2022/03/08 09:21:22;;;;;;;40.95;22.65;;;;;;;;;;5050592;28;20039;-63
2022/03/08 09:23:48;;;;;;;40.78;21.80;;;;;;;;;;5050051;28;20029;-63
2022/03/08 09:26:14;;;;;;;45.83;25.90;;;;;;;;;;5048847;28;20033;-63
2022/03/08 09:28:40;;;;;;;43.00;23.98;;;;;;;;;;5050243;28;20464;-63
2022/03/08 09:31:06;;;;;;;41.35;24.23;;;;;;;;;;5049697;28;20056;-64
2022/03/08 09:33:32;;;;;;;44.42;24.38;;;;;;;;;;5050154;28;20032;-63
2022/03/08 09:35:58;;;;;;;45.63;26.00;;;;;;;;;;5050129;28;20021;-60
2022/03/08 09:38:25;;;;;;;39.33;20.88;;;;;;;;;;5050053;28;20029;-63
2022/03/08 09:40:54;;;;;;;42.38;25.27;;;;;;;;;;5049799;28;20091;-62
2022/03/08 09:43:20;;;;;;;43.28;24.88;;;;;;;;;;5050029;28;20027;-59
2022/03/08 09:45:46;;;;;;;44.20;25.10;;;;;;;;;;5049288;28;20498;-60
2022/03/08 09:48:12;;;;;;;39.95;23.45;;;;;;;;;;5049746;28;20036;-60
2022/03/08 09:50:38;;;;;;;43.03;25.10;;;;;;;;;;5049958;28;20060;-60
2022/03/08 09:53:04;;;;;;;44.20;25.52;;;;;;;;;;5049935;28;20491;-63
2022/03/08 09:55:31;;;;;;;41.53;24.65;;;;;;;;;;5050026;28;20036;-63
2022/03/08 09:57:57;;;;;;;43.15;25.00;;;;;;;;;;5050381;28;20079;-61
2022/03/08 10:00:24;;;;;;;74.88;39.00;;;;;;;;;;5049381;28;20075;-60
2022/03/08 10:02:54;;;;;;;64.15;34.55;;;;;;;;;;5050050;28;20075;-61
2022/03/08 10:05:21;;;;;;;51.28;29.83;;;;;;;;;;5050083;28;20028;-62
2022/03/08 10:08:19;;;;;;;54.90;33.22;;;;;;;;;;5049475;28;20025;-61
2022/03/08 10:10:50;;;;;;;62.47;37.97;;;;;;;;;;5049241;28;20043;-61
2022/03/08 10:13:17;;;;;;;59.57;35.37;;;;;;;;;;5049416;28;20028;-58
2022/03/08 10:15:43;;;;;;;42.33;23.88;;;;;;;;;;5049254;28;20033;-63
2022/03/08 10:18:09;;;;;;;39.15;23.27;;;;;;;;;;5050038;28;20551;-61
2022/03/08 10:20:35;;;;;;;42.45;25.50;;;;;;;;;;5049719;28;20088;-63
2022/03/08 10:23:28;;;;;;;43.65;25.25;;;;;;;;;;5049726;28;20468;-63
2022/03/08 10:26:02;;;;;;;38.58;22.75;;;;;;;;;;5049529;28;20041;-60
2022/03/08 10:28:29;;;;;;;47.75;24.95;;;;;;;;;;5047717;28;20036;-63
2022/03/08 10:30:55;;;;;;;37.33;22.67;;;;;;;;;;5049634;28;20041;-63
2022/03/08 10:33:32;;;;;;;39.42;20.20;;;;;;;;;;5049585;28;20021;-62
2022/03/08 10:35:58;;;;;;;45.95;24.90;;;;;;;;;;5030905;28;20032;-60
2022/03/08 10:38:24;;;;;;;39.80;22.08;;;;;;;;;;5050110;28;20032;-60
2022/03/08 10:40:50;;;;;;;37.92;20.70;;;;;;;;;;5049123;28;20071;-60
2022/03/08 10:43:17;;;;;;;34.78;19.83;;;;;;;;;;5049017;28;20029;-62
2022/03/08 10:45:45;;;;;;;38.42;21.02;;;;;;;;;;5045866;28;20033;-62
2022/03/08 10:48:14;;;;;;;35.70;21.52;;;;;;;;;;5053501;28;20417;-61
2022/03/08 10:50:41;;;;;;;39.05;22.23;;;;;;;;;;5052822;28;20041;-61
2022/03/08 10:53:08;;;;;;;85.25;41.17;;;;;;;;;;5053345;28;20032;-61
2022/03/08 10:55:39;;;;;;;43.28;22.13;;;;;;;;;;5053213;28;20032;-59
2022/03/08 10:58:06;;;;;;;58.13;27.90;;;;;;;;;;5052797;28;20057;-62
2022/03/08 11:00:41;;;;;;;106.95;50.78;;;;;;;;;;5052657;28;20049;-62
2022/03/08 11:03:08;;;;;;;65.22;32.33;;;;;;;;;;5053067;28;20070;-61
2022/03/08 11:05:38;;;;;;;27.70;14.48;;;;;;;;;;5052703;28;20594;-62
2022/03/08 11:08:05;;;;;;;25.00;14.60;;;;;;;;;;5052855;28;20029;-60
2022/03/08 11:10:31;;;;;;;22.63;12.65;;;;;;;;;;5052779;28;20191;-59
2022/03/08 11:12:58;;;;;;;15.95;11.07;;;;;;;;;;5051964;28;20048;-59
2022/03/08 11:15:25;;;;;;;28.98;16.40;;;;;;;;;;5052500;28;20424;-59
2022/03/08 11:17:53;;;;;;;26.33;14.60;;;;;;;;;;5052749;28;20408;-62
2022/03/08 11:20:20;;;;;;;24.05;13.75;;;;;;;;;;5052083;28;20047;-60
2022/03/08 11:22:47;;;;;;;25.02;14.25;;;;;;;;;;5053097;28;20091;-61
2022/03/08 11:25:16;;;;;;;23.30;14.15;;;;;;;;;;5052884;28;20036;-61
2022/03/08 11:27:43;;;;;;;23.10;13.48;;;;;;;;;;5052196;28;20041;-60
2022/03/08 11:30:11;;;;;;;24.65;13.45;;;;;;;;;;5052425;28;20108;-60
2022/03/08 11:32:46;;;;;;;23.75;14.10;;;;;;;;;;5052344;28;20029;-60
2022/03/08 11:35:19;;;;;;;19.55;11.85;;;;;;;;;;5051871;28;20032;-60
2022/03/08 11:37:47;;;;;;;25.98;13.52;;;;;;;;;;5052431;28;20028;-61
2022/03/08 11:40:14;;;;;;;63.53;28.17;;;;;;;;;;5052037;28;20047;-60
2022/03/08 11:42:47;;;;;;;35.05;17.45;;;;;;;;;;5033038;28;20801;-59
2022/03/08 11:45:29;;;;;;;40.47;22.08;;;;;;;;;;5051744;28;20029;-60
2022/03/08 11:47:59;;;;;;;27.03;16.10;;;;;;;;;;5052156;28;20029;-61
2022/03/08 11:50:39;;;;;;;16.00;8.23;;;;;;;;;;5052078;28;20048;-60
2022/03/08 11:53:13;;;;;;;24.08;13.35;;;;;;;;;;5052432;28;20025;-60
2022/03/08 11:55:39;;;;;;;23.63;14.07;;;;;;;;;;5052330;28;20025;-60
2022/03/08 11:58:09;;;;;;;20.10;11.90;;;;;;;;;;5052226;28;20024;-61
2022/03/08 12:00:35;;;;;;;20.02;10.27;;;;;;;;;;5051634;28;20139;-60
2022/03/08 12:03:05;;;;;;;29.85;15.18;;;;;;;;;;5051983;28;20024;-62
2022/03/08 12:05:40;;;;;;;24.15;12.82;;;;;;;;;;5052133;28;20037;-60
2022/03/08 12:08:25;;;;;;;25.88;15.23;;;;;;;;;;5052031;28;20032;-59
2022/03/08 12:10:57;;;;;;;30.80;16.63;;;;;;;;;;5051755;28;20032;-61
2022/03/08 12:13:26;;;;;;;22.90;13.93;;;;;;;;;;5051544;28;20029;-61
2022/03/08 12:16:11;;;;;;;48.90;22.30;;;;;;;;;;5051585;28;20055;-61
2022/03/08 12:18:37;;;;;;;32.10;16.17;;;;;;;;;;5052023;28;20056;-61
2022/03/08 12:21:15;;;;;;;50.17;23.98;;;;;;;;;;5051780;28;20535;-61
2022/03/08 12:23:50;;;;;;;24.35;12.88;;;;;;;;;;5051836;28;20155;-60
2022/03/08 12:26:24;;;;;;;18.33;11.13;;;;;;;;;;5052020;28;20479;-60
2022/03/08 12:29:05;;;;;;;32.35;16.77;;;;;;;;;;5051708;28;20094;-60
2022/03/08 12:31:31;;;;;;;31.63;17.08;;;;;;;;;;5051634;28;20044;-60
2022/03/08 12:34:01;;;;;;;22.42;13.52;;;;;;;;;;5051767;28;20122;-62
2022/03/08 12:36:27;;;;;;;34.42;18.75;;;;;;;;;;5051176;28;20033;-58
2022/03/08 12:38:54;;;;;;;26.85;13.45;;;;;;;;;;5051564;28;20036;-60
2022/03/08 12:41:27;;;;;;;24.48;12.80;;;;;;;;;;5051368;28;20119;-60
2022/03/08 12:44:01;;;;;;;24.55;14.52;;;;;;;;;;5049788;28;20028;-61
2022/03/08 12:46:28;;;;;;;17.15;10.75;;;;;;;;;;5050523;28;20021;-64
2022/03/08 12:48:54;;;;;;;34.92;18.08;;;;;;;;;;5050301;28;20066;-61
2022/03/08 12:51:21;;;;;;;29.55;16.15;;;;;;;;;;5050938;28;20021;-61
2022/03/08 12:53:50;;;;;;;25.95;14.93;;;;;;;;;;5051285;28;20033;-61
2022/03/08 12:56:18;;;;;;;22.50;13.45;;;;;;;;;;5050734;28;20021;-61
2022/03/08 12:58:44;;;;;;;23.30;13.25;;;;;;;;;;5049003;28;20078;-62
2022/03/08 13:01:11;;;;;;;21.85;12.25;;;;;;;;;;5050190;28;20072;-61
2022/03/08 13:03:38;;;;;;;50.53;27.92;;;;;;;;;;5042659;28;20033;-60
2022/03/08 13:06:06;;;;;;;22.58;13.30;;;;;;;;;;5046242;28;20029;-61
2022/03/08 13:08:33;;;;;;;28.00;15.05;;;;;;;;;;5050657;28;20025;-61
2022/03/08 13:11:00;;;;;;;24.13;13.88;;;;;;;;;;5050403;28;20029;-61
2022/03/08 13:13:27;;;;;;;30.23;15.43;;;;;;;;;;5050742;28;20078;-60
2022/03/08 13:15:53;;;;;;;24.90;13.75;;;;;;;;;;5050263;28;20021;-61
2022/03/08 13:18:25;;;;;;;26.20;14.95;;;;;;;;;;5050484;28;20090;-61
2022/03/08 13:20:55;;;;;;;29.85;16.42;;;;;;;;;;5050603;28;20036;-61
2022/03/08 13:23:23;;;;;;;27.08;14.95;;;;;;;;;;5050419;28;20080;-61
2022/03/08 13:25:50;;;;;;;24.50;13.98;;;;;;;;;;5048347;28;20037;-60
2022/03/08 13:28:17;;;;;;;38.42;20.05;;;;;;;;;;5050109;28;20033;-61
2022/03/08 13:30:43;;;;;;;32.40;18.88;;;;;;;;;;5050255;28;20041;-61
2022/03/08 13:33:12;;;;;;;25.48;14.48;;;;;;;;;;5050563;28;20021;-60
2022/03/08 13:35:47;;;;;;;23.92;13.55;;;;;;;;;;5050335;28;20080;-60
2022/03/08 13:38:14;;;;;;;23.95;14.95;;;;;;;;;;5050526;28;20385;-60
2022/03/08 13:40:41;;;;;;;28.75;15.70;;;;;;;;;;5044207;28;20063;-59
2022/03/08 13:43:07;;;;;;;31.50;16.65;;;;;;;;;;5039351;28;20120;-61
2022/03/08 13:45:34;;;;;;;23.08;13.45;;;;;;;;;;5030104;28;20037;-60
2022/03/08 13:48:01;;;;;;;25.30;14.98;;;;;;;;;;5030623;28;20032;-60
2022/03/08 13:50:27;;;;;;;37.95;21.02;;;;;;;;;;5029946;28;20075;-60
2022/03/08 13:52:58;;;;;;;28.02;15.93;;;;;;;;;;5046062;28;20040;-60
2022/03/08 13:55:28;;;;;;;27.83;16.52;;;;;;;;;;5040823;28;20036;-60
2022/03/08 13:58:04;;;;;;;31.15;16.48;;;;;;;;;;5038284;28;20468;-61
2022/03/08 14:00:32;;;;;;;24.70;14.63;;;;;;;;;;5040177;28;20053;-60
2022/03/08 14:02:59;;;;;;;24.08;14.40;;;;;;;;;;5038123;28;20023;-60
2022/03/08 14:05:25;;;;;;;29.17;16.15;;;;;;;;;;5039713;28;20032;-60
2022/03/08 14:07:58;;;;;;;24.55;14.32;;;;;;;;;;5038649;28;20020;-60
2022/03/08 14:10:24;;;;;;;24.55;13.77;;;;;;;;;;5046693;28;20017;-60
2022/03/08 14:12:51;;;;;;;26.77;13.88;;;;;;;;;;5045985;28;20028;-61
2022/03/08 14:15:17;;;;;;;40.08;20.20;;;;;;;;;;5041489;28;20021;-62
2022/03/08 14:17:44;;;;;;;62.15;30.38;;;;;;;;;;5039200;28;20025;-60
2022/03/08 14:20:20;;;;;;;23.15;13.38;;;;;;;;;;5037700;28;20033;-61
2022/03/08 14:22:59;;;;;;;28.58;16.23;;;;;;;;;;5043025;28;20128;-61
2022/03/08 14:25:25;;;;;;;48.00;21.30;;;;;;;;;;5041205;28;20111;-59
2022/03/08 14:27:52;;;;;;;34.90;17.90;;;;;;;;;;5042664;28;20095;-60
2022/03/08 14:30:25;;;;;;;25.25;14.75;;;;;;;;;;5044354;28;20051;-60
2022/03/08 14:32:51;;;;;;;22.58;13.07;;;;;;;;;;5053086;28;20028;-60
2022/03/08 14:35:19;;;;;;;24.38;13.00;;;;;;;;;;5043975;28;20037;-63
2022/03/08 14:37:45;;;;;;;21.92;13.38;;;;;;;;;;5053632;28;20114;-61
2022/03/08 14:40:12;;;;;;;22.52;13.00;;;;;;;;;;5053420;28;20037;-61
2022/03/08 14:42:40;;;;;;;21.50;13.00;;;;;;;;;;5053212;28;20071;-59
2022/03/08 14:45:11;;;;;;;26.95;15.38;;;;;;;;;;5053425;28;20118;-60
2022/03/08 14:47:40;;;;;;;25.25;14.48;;;;;;;;;;5053430;28;20108;-59
2022/03/08 14:50:07;;;;;;;18.90;11.43;;;;;;;;;;5053382;28;20025;-62
2022/03/08 14:52:35;;;;;;;24.30;13.95;;;;;;;;;;5053800;28;20083;-61
2022/03/08 14:55:03;;;;;;;26.13;13.85;;;;;;;;;;5052679;28;20083;-61
2022/03/08 14:57:29;;;;;;;22.80;13.95;;;;;;;;;;5053572;28;20024;-60
2022/03/08 14:59:58;;;;;;;26.80;14.05;;;;;;;;;;5053137;28;20053;-60
2022/03/08 15:02:24;;;;;;;20.23;12.15;;;;;;;;;;5052791;28;20118;-60
2022/03/08 15:04:50;;;;;;;25.30;14.57;;;;;;;;;;5052723;28;20033;-59
2022/03/08 15:07:16;;;;;;;35.55;18.45;;;;;;;;;;5053094;28;20333;-60
2022/03/08 15:09:43;;;;;;;37.92;19.65;;;;;;;;;;5052871;28;20507;-60
2022/03/08 15:12:11;;;;;;;21.73;11.70;;;;;;;;;;5052713;28;20188;-61
2022/03/08 15:14:37;;;;;;;23.67;13.13;;;;;;;;;;5052936;28;20032;-61
2022/03/08 15:17:04;;;;;;;18.90;10.70;;;;;;;;;;5052238;28;20035;-60
2022/03/08 15:19:30;;;;;;;21.45;11.65;;;;;;;;;;5052453;28;20547;-61
2022/03/08 15:21:57;;;;;;;22.33;13.65;;;;;;;;;;5052671;28;20098;-60
2022/03/08 15:24:23;;;;;;;27.95;15.55;;;;;;;;;;5052649;28;20074;-60
2022/03/08 15:26:49;;;;;;;51.90;25.90;;;;;;;;;;5052617;28;20057;-61
2022/03/08 15:29:19;;;;;;;20.15;12.00;;;;;;;;;;5052413;28;20029;-61
2022/03/08 15:31:45;;;;;;;19.50;11.88;;;;;;;;;;5051665;28;20040;-60
2022/03/08 15:34:11;;;;;;;27.20;14.55;;;;;;;;;;5052519;28;20388;-60
2022/03/08 15:36:37;;;;;;;31.88;18.55;;;;;;;;;;5052691;28;20074;-60
2022/03/08 15:39:04;;;;;;;26.58;14.82;;;;;;;;;;5052561;28;20036;-60
2022/03/08 15:41:30;;;;;;;34.45;18.60;;;;;;;;;;5052303;28;20064;-58
2022/03/08 15:43:57;;;;;;;29.25;17.38;;;;;;;;;;5051711;28;20017;-62
2022/03/08 15:46:23;;;;;;;26.05;15.23;;;;;;;;;;5040739;28;20071;-62
2022/03/08 15:48:50;;;;;;;32.70;18.75;;;;;;;;;;5034954;28;20026;-60
2022/03/08 15:51:17;;;;;;;48.20;25.88;;;;;;;;;;5032477;28;20108;-61
2022/03/08 15:53:43;;;;;;;44.17;23.60;;;;;;;;;;5032454;28;20029;-61
2022/03/08 15:56:09;;;;;;;40.95;20.98;;;;;;;;;;5032063;28;20032;-61
2022/03/08 15:58:36;;;;;;;24.95;13.02;;;;;;;;;;5032145;28;20159;-62
2022/03/08 16:01:02;;;;;;;24.90;13.82;;;;;;;;;;5031312;28;20458;-61
2022/03/08 16:03:28;;;;;;;25.30;14.38;;;;;;;;;;5032145;28;20366;-62
2022/03/08 16:05:54;;;;;;;23.33;13.77;;;;;;;;;;5031691;28;20026;-60
2022/03/08 16:08:20;;;;;;;24.10;13.40;;;;;;;;;;5032023;28;20064;-59
2022/03/08 16:10:47;;;;;;;26.85;14.35;;;;;;;;;;5030473;28;20036;-61
2022/03/08 16:13:14;;;;;;;24.85;13.80;;;;;;;;;;5049741;28;20777;-62
2022/03/08 16:15:41;;;;;;;28.17;16.08;;;;;;;;;;5049415;28;20028;-61
2022/03/08 16:18:07;;;;;;;27.98;15.68;;;;;;;;;;5040013;28;20100;-62
2022/03/08 16:20:34;;;;;;;24.63;14.10;;;;;;;;;;5040601;28;20342;-62
2022/03/08 16:23:02;;;;;;;23.38;13.05;;;;;;;;;;5039970;28;20021;-62
2022/03/08 16:25:29;;;;;;;25.20;14.88;;;;;;;;;;5038618;28;20507;-61
2022/03/08 16:27:55;;;;;;;28.90;15.27;;;;;;;;;;5039304;28;20049;-60
2022/03/08 16:30:22;;;;;;;32.45;15.60;;;;;;;;;;5040064;28;20080;-61
2022/03/08 16:32:48;;;;;;;36.25;15.07;;;;;;;;;;5040234;28;20346;-63
2022/03/08 16:35:14;;;;;;;39.15;15.55;;;;;;;;;;5038858;28;20041;-62
2022/03/08 16:37:40;;;;;;;25.15;13.10;;;;;;;;;;5040185;28;20025;-61
2022/03/08 16:40:08;;;;;;;23.40;13.05;;;;;;;;;;5033270;28;20087;-61
2022/03/08 16:42:35;;;;;;;21.10;12.60;;;;;;;;;;5054914;28;20494;-62
2022/03/08 16:45:01;;;;;;;28.48;15.95;;;;;;;;;;5070077;28;20965;-61
2022/03/08 16:47:27;;;;;;;35.92;18.45;;;;;;;;;;5070507;28;20081;-62
2022/03/08 16:49:54;;;;;;;36.63;20.48;;;;;;;;;;5045967;28;20037;-62
2022/03/08 16:52:20;;;;;;;46.60;21.63;;;;;;;;;;5034032;28;20030;-63
2022/03/08 16:54:46;;;;;;;34.05;18.98;;;;;;;;;;5031008;28;20025;-62
2022/03/08 16:57:12;;;;;;;31.92;17.42;;;;;;;;;;5031268;28;20494;-60
2022/03/08 16:59:38;;;;;;;30.13;16.92;;;;;;;;;;5031065;28;20737;-62
2022/03/08 17:02:06;;;;;;;30.30;15.77;;;;;;;;;;5030403;28;20026;-61
2022/03/08 17:04:32;;;;;;;31.50;16.48;;;;;;;;;;5030828;28;20031;-61
2022/03/08 17:06:58;;;;;;;33.17;16.20;;;;;;;;;;5030592;28;20105;-60
2022/03/08 17:09:24;;;;;;;33.15;17.40;;;;;;;;;;5030459;28;20112;-60
2022/03/08 17:11:50;;;;;;;33.45;16.10;;;;;;;;;;5030449;28;20032;-60
2022/03/08 17:14:16;;;;;;;33.28;15.60;;;;;;;;;;5030894;28;20362;-62
2022/03/08 17:16:43;;;;;;;33.25;16.35;;;;;;;;;;5030548;28;20473;-62
2022/03/08 17:19:09;;;;;;;29.20;16.75;;;;;;;;;;5030650;28;20029;-60
2022/03/08 17:21:38;;;;;;;21.63;11.05;;;;;;;;;;5030810;28;20040;-60
2022/03/08 17:24:05;;;;;;;15.75;8.25;;;;;;;;;;5041690;28;20044;-61
2022/03/08 17:26:31;;;;;;;25.67;12.93;;;;;;;;;;5030849;28;20395;-61
2022/03/08 17:28:57;;;;;;;19.33;9.75;;;;;;;;;;5030678;28;20018;-61
2022/03/08 17:31:23;;;;;;;20.17;9.35;;;;;;;;;;5029553;28;20700;-61
2022/03/08 17:33:49;;;;;;;15.68;8.68;;;;;;;;;;5030819;28;20029;-62
2022/03/08 17:36:15;;;;;;;14.73;8.80;;;;;;;;;;5030074;28;20030;-61
2022/03/08 17:38:41;;;;;;;18.90;10.48;;;;;;;;;;5030557;28;20450;-61
2022/03/08 17:41:07;;;;;;;21.52;10.57;;;;;;;;;;5030325;28;20489;-60
2022/03/08 17:43:33;;;;;;;21.00;10.68;;;;;;;;;;5063272;28;20082;-60
2022/03/08 17:45:59;;;;;;;21.80;11.65;;;;;;;;;;5069946;28;20066;-60
2022/03/08 17:48:26;;;;;;;20.45;11.07;;;;;;;;;;5069746;28;20024;-60
2022/03/08 17:50:52;;;;;;;22.10;10.98;;;;;;;;;;5069912;28;20093;-60
2022/03/08 17:53:18;;;;;;;21.33;11.02;;;;;;;;;;5069976;28;20062;-60
2022/03/08 17:55:44;;;;;;;19.73;10.63;;;;;;;;;;5067902;28;20025;-62
2022/03/08 17:58:10;;;;;;;19.38;10.95;;;;;;;;;;5046704;28;20036;-61
2022/03/08 18:00:38;;;;;;;19.40;10.32;;;;;;;;;;5049804;28;20072;-60
2022/03/08 18:03:04;;;;;;;17.55;11.23;;;;;;;;;;5049873;28;20130;-60
2022/03/08 18:05:30;;;;;;;15.95;9.05;;;;;;;;;;5049734;28;20025;-60
2022/03/08 18:07:56;;;;;;;18.80;10.38;;;;;;;;;;5050032;28;20017;-61
2022/03/08 18:10:22;;;;;;;16.67;8.77;;;;;;;;;;5050162;28;20044;-61
2022/03/08 18:12:48;;;;;;;19.98;10.95;;;;;;;;;;5048729;28;20023;-61
2022/03/08 18:15:14;;;;;;;21.95;11.10;;;;;;;;;;5049559;28;20029;-61
2022/03/08 18:17:40;;;;;;;22.10;11.25;;;;;;;;;;5049866;28;20032;-61
2022/03/08 18:20:07;;;;;;;20.10;10.18;;;;;;;;;;5033766;28;20045;-59
2022/03/08 18:22:33;;;;;;;21.13;11.00;;;;;;;;;;5029701;28;20029;-61
2022/03/08 18:24:59;;;;;;;22.73;11.63;;;;;;;;;;5031855;28;20032;-61
2022/03/08 18:27:25;;;;;;;20.15;10.95;;;;;;;;;;5046321;28;20127;-60
2022/03/08 18:29:51;;;;;;;25.33;12.07;;;;;;;;;;5029709;28;20037;-61
2022/03/08 18:32:17;;;;;;;26.35;13.98;;;;;;;;;;5025275;28;20025;-62
2022/03/08 18:34:43;;;;;;;28.17;14.77;;;;;;;;;;5044022;28;20029;-60
2022/03/08 18:37:09;;;;;;;28.80;15.27;;;;;;;;;;5028952;28;20076;-60
2022/03/08 18:39:35;;;;;;;28.08;14.43;;;;;;;;;;5034169;28;20063;-60
2022/03/08 18:42:01;;;;;;;34.50;17.58;;;;;;;;;;5046497;28;20029;-60
2022/03/08 18:44:28;;;;;;;39.35;17.42;;;;;;;;;;5033608;28;20032;-61
2022/03/08 18:46:54;;;;;;;31.55;15.65;;;;;;;;;;5031961;28;20523;-60
2022/03/08 18:49:20;;;;;;;27.90;15.55;;;;;;;;;;5040287;28;20104;-60
2022/03/08 18:51:46;;;;;;;31.75;16.20;;;;;;;;;;5042483;28;20481;-60
2022/03/08 18:54:13;;;;;;;32.15;16.38;;;;;;;;;;5029563;28;20597;-60
2022/03/08 18:56:39;;;;;;;31.95;15.93;;;;;;;;;;5030635;28;20128;-59
2022/03/08 18:59:05;;;;;;;33.53;17.10;;;;;;;;;;5036126;28;20028;-60
2022/03/08 19:01:32;;;;;;;32.38;16.25;;;;;;;;;;5035147;28;20515;-60
2022/03/08 19:03:58;;;;;;;38.00;17.77;;;;;;;;;;5044224;28;20655;-62
2022/03/08 19:06:27;;;;;;;32.92;16.88;;;;;;;;;;5048709;28;20031;-61
2022/03/08 19:08:53;;;;;;;32.15;17.42;;;;;;;;;;5052063;28;20029;-61
2022/03/08 19:11:20;;;;;;;32.78;17.75;;;;;;;;;;5052396;28;20484;-60
2022/03/08 19:13:46;;;;;;;31.48;18.02;;;;;;;;;;5052670;28;20021;-61
2022/03/08 19:16:13;;;;;;;42.65;19.45;;;;;;;;;;5052794;28;20029;-60
2022/03/08 19:18:42;;;;;;;38.15;19.10;;;;;;;;;;5051921;28;20025;-60
2022/03/08 19:21:08;;;;;;;39.67;18.75;;;;;;;;;;5052569;28;20116;-61
2022/03/08 19:23:34;;;;;;;34.08;16.77;;;;;;;;;;5048785;28;20029;-59
2022/03/08 19:26:00;;;;;;;33.45;17.02;;;;;;;;;;5032329;28;20160;-61
2022/03/08 19:28:26;;;;;;;29.35;15.35;;;;;;;;;;5032480;28;20028;-60
2022/03/08 19:30:52;;;;;;;36.03;16.88;;;;;;;;;;5032157;28;20123;-62
2022/03/08 19:33:19;;;;;;;37.22;16.92;;;;;;;;;;5046244;28;20029;-60
2022/03/08 19:35:45;;;;;;;31.50;16.33;;;;;;;;;;5045783;28;20032;-61
2022/03/08 19:38:11;;;;;;;35.15;16.92;;;;;;;;;;5042488;28;20029;-61
2022/03/08 19:40:37;;;;;;;37.15;17.10;;;;;;;;;;5038691;28;20040;-61
2022/03/08 19:43:04;;;;;;;36.28;17.90;;;;;;;;;;5031973;28;20021;-61
2022/03/08 19:45:30;;;;;;;36.58;18.83;;;;;;;;;;5032183;28;20113;-62
2022/03/08 19:47:56;;;;;;;41.55;19.60;;;;;;;;;;5031451;28;20030;-62
2022/03/08 19:50:23;;;;;;;39.63;20.20;;;;;;;;;;5032360;28;20037;-61
2022/03/08 19:52:49;;;;;;;49.78;23.42;;;;;;;;;;5032008;28;20060;-62
2022/03/08 19:55:15;;;;;;;51.88;23.42;;;;;;;;;;5034114;28;20667;-60
2022/03/08 19:57:41;;;;;;;47.80;23.75;;;;;;;;;;5031291;28;20511;-62
2022/03/08 20:00:08;;;;;;;54.53;24.63;;;;;;;;;;5044906;28;20052;-60
2022/03/08 20:02:35;;;;;;;61.28;28.92;;;;;;;;;;5036216;28;20482;-60
2022/03/08 20:05:01;;;;;;;63.55;30.83;;;;;;;;;;5038197;28;20025;-61
2022/03/08 20:07:27;;;;;;;62.97;32.17;;;;;;;;;;5051436;28;20025;-61
2022/03/08 20:09:53;;;;;;;61.08;31.15;;;;;;;;;;5045854;28;20032;-60
2022/03/08 20:12:19;;;;;;;61.33;30.00;;;;;;;;;;5051478;28;20116;-61
2022/03/08 20:14:45;;;;;;;69.13;32.58;;;;;;;;;;5050003;28;20028;-60
2022/03/08 20:17:12;;;;;;;61.13;28.98;;;;;;;;;;5042281;28;20040;-61